Latest Weather Observations for Stawell

IDV60801

Issued at 3:02 pm EDT Saturday 7 March 2015 (issued every 30 minutes, with the page automatically refreshed every 10 minutes)

About weather observations | Map of weather stations | Latest weather observations for VIC | Other Formats
Station Details ID: 079105 Name: STAWELL AERODROME Lat: -37.07 Lon: 142.74 Height: 235.36 m
Data from the previous 72 hours. | See also: Recent months at Stawell
Date/Time
EDT
Temp
°C
App
Temp
°C
Dew
Point
Rel
Hum
%
Delta-T
°C
Wind Press
QNH
hPa
Press
MSL
hPa
Rain
since 9 am
mm
Dir
 
Spd
km/h
Gust
km/h
Spd
kts
Gust
kts
07/03:00pm 21.2 18.1 10.4 50 5.9 WSW 17 26 9 14 1011.1 1011.4 0.0
07/02:30pm 21.4 17.9 10.3 49 6.1 SW 19 26 10 14 1011.2 - 0.0
07/02:00pm 22.1 19.0 11.5 51 6.0 SW 19 28 10 15 1011.1 - 0.0
07/01:30pm 20.5 17.5 10.6 53 5.4 W 17 26 9 14 1011.4 - 0.0
07/01:00pm 20.2 17.2 10.6 54 5.3 WSW 17 30 9 16 1011.7 - 0.0
07/12:30pm 20.3 17.8 11.2 56 5.1 NW 15 22 8 12 1012.1 - 0.0
07/12:00pm 19.7 17.3 11.5 59 4.6 WNW 15 20 8 11 1012.5 1012.8 0.0
07/11:30am 20.0 17.5 11.2 57 4.9 W 15 22 8 12 1012.7 - 0.0
07/11:00am 18.4 15.5 11.0 62 4.1 W 17 28 9 15 1012.8 - 0.0
07/10:30am 17.0 13.6 10.6 66 3.5 SW 19 24 10 13 1012.7 - 0.0
07/10:00am 16.2 14.9 11.2 72 2.7 W 9 15 5 8 1012.6 - 0.0
07/09:30am 15.3 14.6 11.5 78 2.1 WNW 6 11 3 6 1012.7 - 0.0
07/09:00am 14.1 13.1 11.1 82 1.6 N 7 9 4 5 1012.8 1013.1 0.0
07/08:30am 13.8 12.7 10.8 82 1.6 N 7 9 4 5 1012.2 - 0.0
07/08:00am 13.5 12.5 10.9 84 1.4 NNW 7 9 4 5 1012.1 - 0.0
07/07:30am 13.3 12.3 11.0 86 1.2 WNW 7 9 4 5 1011.8 - 0.0
07/07:00am 13.4 12.3 10.8 84 1.4 W 7 9 4 5 1011.3 - 0.0
07/06:30am 14.0 12.6 11.0 82 1.6 W 9 13 5 7 1011.2 - 0.0
07/06:00am 14.0 11.9 11.0 82 1.6 W 13 24 7 13 1011.3 1011.6 0.0
07/05:30am 13.5 12.4 10.7 83 1.5 W 7 13 4 7 1011.0 - 0.0
07/05:00am 13.8 12.3 10.6 81 1.7 WSW 9 19 5 10 1011.1 - 0.0
07/04:30am 14.2 12.3 10.6 79 1.9 W 11 17 6 9 1011.3 - 0.0
07/04:00am 14.7 12.5 10.9 78 2.0 WSW 13 22 7 12 1011.4 - 0.0
07/03:30am 15.0 14.0 10.4 74 2.4 W 6 7 3 4 1011.5 - 0.0
07/03:00am 15.0 14.7 10.2 73 2.5 WSW 2 9 1 5 1011.6 1011.9 0.0
07/02:30am 15.1 13.2 10.5 74 2.5 W 11 20 6 11 1012.1 - 0.0
07/02:00am 15.3 12.7 10.7 74 2.5 WSW 15 24 8 13 1012.3 - 0.0
07/01:30am 15.6 14.2 11.0 74 2.5 W 9 17 5 9 1012.6 - 0.0
07/01:00am 15.2 14.1 10.8 75 2.4 WNW 7 11 4 6 1012.5 - 0.0
07/12:30am 14.8 14.1 11.4 80 1.8 NNW 6 13 3 7 1012.5 - 0.0
07/12:00am 15.2 14.4 11.8 80 1.9 WSW 7 9 4 5 1012.7 1013.0 0.0
 
Date/Time
EDT
Temp
°C
App
Temp
°C
Dew
Point
Rel
Hum
%
Delta-T
°C
Wind Press
QNH
hPa
Press
MSL
hPa
Rain
since 9 am
mm
Dir
 
Spd
km/h
Gust
km/h
Spd
kts
Gust
kts
06/11:30pm 15.6 16.4 12.4 81 1.8 CALM 0 0 0 0 1012.8 - 0.0
06/11:00pm 16.3 15.6 11.5 73 2.6 W 6 9 3 5 1012.6 - 0.0
06/10:30pm 16.6 16.7 11.5 72 2.8 SSW 2 7 1 4 1012.7 - 0.0
06/10:00pm 17.3 16.1 11.6 69 3.1 SW 9 13 5 7 1012.6 - 0.0
06/09:30pm 17.9 17.2 11.9 68 3.3 SSW 7 9 4 5 1012.5 - 0.0
06/09:00pm 18.1 17.0 11.9 67 3.5 S 9 13 5 7 1012.4 1012.7 0.0
06/08:30pm 18.3 17.2 12.1 67 3.5 WSW 9 13 5 7 1012.2 - 0.0
06/08:00pm 18.4 17.3 11.9 66 3.6 SW 9 15 5 8 1012.0 - 0.0
06/07:30pm 18.5 16.2 11.8 65 3.7 SW 15 19 8 10 1011.8 - 0.0
06/07:00pm 19.6 17.0 12.1 62 4.2 WSW 17 22 9 12 1011.9 - 0.0
06/06:30pm 19.8 16.8 12.1 61 4.3 WSW 19 26 10 14 1011.7 - 0.0
06/06:00pm 20.3 18.3 12.8 62 4.3 WSW 15 22 8 12 1011.5 1011.8 0.0
06/05:30pm 19.5 16.7 12.5 64 4.0 SSW 19 22 10 12 1011.4 - 0.0
06/05:00pm 19.6 18.2 13.3 67 3.6 WSW 13 20 7 11 1011.5 - 0.0
06/04:30pm 19.0 17.2 13.4 70 3.2 SSW 15 24 8 13 1011.6 - 0.0
06/04:00pm 20.0 17.9 12.3 61 4.4 W 15 28 8 15 1011.6 - 0.0
06/03:30pm 20.0 17.2 11.5 58 4.7 W 17 24 9 13 1011.7 - 0.0
06/03:00pm 19.5 17.5 11.5 60 4.5 W 13 24 7 13 1012.2 1012.5 0.0
06/02:30pm 19.9 16.7 11.4 58 4.7 WSW 19 32 10 17 1012.2 - 0.0
06/02:00pm 19.5 16.0 11.0 58 4.7 W 20 26 11 14 1012.4 - 0.0
06/01:30pm 19.6 16.0 10.6 56 4.9 SW 20 33 11 18 1012.7 - 0.0
06/01:00pm 18.9 15.3 10.7 59 4.5 SW 20 32 11 17 1012.8 - 0.0
06/12:30pm 18.6 14.3 10.7 60 4.3 SW 24 39 13 21 1013.0 - 0.0
06/12:00pm 17.5 13.5 10.4 63 3.8 SW 22 35 12 19 1013.3 1013.5 0.0
06/11:30am 17.6 14.2 10.5 63 3.8 WSW 19 28 10 15 1013.5 - 0.0
06/11:00am 17.0 13.5 10.1 64 3.7 SW 19 30 10 16 1013.3 - 0.0
06/10:30am 16.8 13.1 10.2 65 3.5 SW 20 37 11 20 1013.1 - 0.0
06/10:00am 16.3 12.6 10.2 67 3.3 SW 20 35 11 19 1012.9 - 0.0
06/09:30am 15.5 11.2 9.4 67 3.2 SW 22 37 12 20 1012.6 - 0.0
06/09:00am 15.3 10.2 9.2 67 3.2 WSW 26 37 14 20 1012.5 1012.8 0.0
06/08:30am 14.8 10.9 8.7 67 3.1 WSW 19 26 10 14 1012.2 - 0.0
06/08:00am 14.4 11.6 8.6 68 3.0 WSW 13 22 7 12 1012.2 - 0.0
06/07:30am 14.0 10.4 8.4 69 2.8 WSW 17 28 9 15 1012.1 - 0.0
06/07:00am 13.9 10.2 8.1 68 2.9 SW 17 28 9 15 1011.9 - 0.0
06/06:30am 13.9 10.8 7.4 65 3.2 SSW 13 30 7 16 1012.1 - 0.0
06/06:00am 13.5 9.6 7.1 65 3.1 SW 17 32 9 17 1012.2 1012.5 0.0
06/05:30am 13.3 9.7 6.9 65 3.1 WSW 15 30 8 16 1012.2 - 0.0
06/05:00am 13.2 9.7 7.0 66 3.0 SW 15 24 8 13 1012.8 - 0.0
06/04:30am 13.0 10.6 6.8 66 3.0 WNW 9 28 5 15 1012.8 - 0.0
06/04:00am 12.9 8.9 6.7 66 3.0 SW 17 33 9 18 1013.1 - 0.0
06/03:30am 13.0 10.5 6.4 64 3.2 E 9 17 5 9 1013.9 - 0.0
06/03:00am 12.8 10.6 6.2 64 3.2 S 7 13 4 7 1014.1 1014.3 0.0
06/02:30am 12.5 10.2 5.7 63 3.2 W 7 13 4 7 1014.4 - 0.0
06/02:00am 12.6 10.5 5.8 63 3.2 NNE 6 9 3 5 1014.5 - 0.0
06/01:30am 12.7 10.5 5.4 61 3.4 SW 6 11 3 6 1015.1 - 0.0
06/01:00am 12.9 9.7 5.3 60 3.6 NNE 11 24 6 13 1015.0 - 0.0
06/12:30am 12.9 9.3 5.1 59 3.7 WNW 13 26 7 14 1015.5 - 0.0
06/12:00am 13.0 8.3 5.2 59 3.7 W 19 28 10 15 1015.6 1015.9 0.0
 
Date/Time
EDT
Temp
°C
App
Temp
°C
Dew
Point
Rel
Hum
%
Delta-T
°C
Wind Press
QNH
hPa
Press
MSL
hPa
Rain
since 9 am
mm
Dir
 
Spd
km/h
Gust
km/h
Spd
kts
Gust
kts
05/11:30pm 13.1 9.5 4.8 57 3.9 W 13 20 7 11 1015.7 - 0.0
05/11:00pm 13.2 10.2 4.1 54 4.2 W 9 17 5 9 1015.9 - 0.0
05/10:30pm 13.5 10.1 3.8 52 4.4 SW 11 17 6 9 1016.3 - 0.0
05/10:00pm 14.0 9.8 3.8 50 4.7 WSW 15 20 8 11 1016.3 - 0.0
05/09:30pm 14.8 10.9 3.3 46 5.3 WSW 13 20 7 11 1016.3 - 0.0
05/09:00pm 15.5 11.6 3.6 45 5.5 SW 13 24 7 13 1015.9 1016.2 0.0
05/08:30pm 16.3 12.3 3.0 41 6.1 WSW 13 17 7 9 1015.4 - 0.0
05/08:00pm 16.9 12.3 1.8 36 6.8 SW 15 22 8 12 1015.5 - 0.0
05/07:30pm 17.9 13.3 1.4 33 7.5 WSW 15 24 8 13 1015.6 - 0.0
05/07:00pm 18.6 12.8 0.2 29 8.2 SW 20 30 11 16 1015.6 - 0.0
05/06:30pm 19.9 14.3 -0.1 26 8.9 WSW 19 28 10 15 1015.4 - 0.0
05/06:00pm 20.6 15.0 -0.1 25 9.3 WSW 19 32 10 17 1015.4 1015.7 0.0
05/05:30pm 21.3 16.5 -0.1 24 9.7 WSW 15 28 8 15 1015.4 - 0.0
05/05:00pm 21.2 15.4 -1.3 22 9.9 WSW 19 30 10 16 1015.3 - 0.0
05/04:30pm 20.2 14.9 -0.4 25 9.2 WSW 17 30 9 16 1015.5 - 0.0
05/04:00pm 20.9 15.8 0.7 26 9.2 WSW 17 24 9 13 1015.9 - 0.0
05/03:30pm 20.0 14.4 -0.1 26 9.0 WSW 19 28 10 15 1016.5 - 0.0
05/03:00pm 19.1 13.2 -0.8 26 8.7 S 20 32 11 17 1016.8 1017.1 0.0
05/02:30pm 19.2 13.7 0.3 28 8.4 SW 19 30 10 16 1017.0 - 0.0
05/02:00pm 18.5 14.3 1.5 32 7.7 SSW 13 28 7 15 1017.2 - 0.0
05/01:30pm 17.6 13.5 2.0 35 7.1 WSW 13 22 7 12 1017.6 - 0.0
05/01:00pm 18.3 12.9 2.6 35 7.3 S 20 33 11 18 1018.2 - 0.0
05/12:30pm 17.1 10.9 1.9 36 6.9 SW 24 30 13 16 1018.7 - 0.0
05/12:00pm 16.8 10.3 2.8 39 6.4 S 26 39 14 21 1018.8 1019.1 0.0
05/11:30am 15.6 9.9 2.7 42 5.9 SSW 22 35 12 19 1018.8 - 0.0
05/11:00am 15.1 8.7 3.3 45 5.4 S 26 44 14 24 1018.9 - 0.0
05/10:30am 14.1 7.0 3.3 48 4.9 S 30 46 16 25 1018.4 - 0.0
05/10:09am 13.4 6.5 2.3 47 4.9 S 28 46 15 25 1018.1 - 0.0
05/10:00am 13.9 7.4 2.8 47 5.0 S 26 44 14 24 1018.1 - 0.0
05/09:30am 12.9 5.4 3.6 53 4.2 S 32 52 17 28 1017.6 - 0.0
05/09:28am 12.8 5.7 3.7 54 4.1 S 30 52 16 28 1017.5 - 0.0
05/09:00am 12.3 5.6 3.8 56 3.8 S 28 44 15 24 1017.2 1017.5 0.0
05/08:30am 11.7 6.1 3.5 57 3.7 SSW 22 43 12 23 1016.8 - 0.0
05/08:00am 11.2 5.6 3.3 58 3.5 SSW 22 35 12 19 1016.4 - 0.0
05/07:30am 10.8 5.1 2.9 58 3.5 SSW 22 39 12 21 1015.7 - 0.0
05/07:00am 10.5 6.8 2.1 56 3.6 SSW 11 20 6 11 1015.3 - 0.0
05/06:30am 10.7 7.6 1.3 52 4.0 SSW 7 15 4 8 1015.4 - 0.0
05/06:00am 11.1 8.7 1.9 53 4.0 ESE 4 13 2 7 1015.1 1015.4 0.0
05/05:30am 11.6 5.2 1.0 48 4.5 S 24 43 13 23 1014.8 - 0.0
05/05:00am 11.9 4.9 1.8 50 4.4 SSW 28 48 15 26 1014.2 - 0.0
05/04:30am 12.4 4.3 3.4 54 4.1 SSW 35 59 19 32 1013.4 - 0.0
05/04:00am 13.2 6.6 5.9 61 3.5 SSW 30 54 16 29 1013.3 - 0.0
05/03:57am 13.4 7.2 6.0 61 3.6 SSW 28 54 15 29 1013.1 - 0.0
05/03:30am 13.7 8.0 6.8 63 3.4 SSW 26 44 14 24 1012.7 - 0.0
05/03:00am 14.4 8.8 8.6 68 3.0 SW 28 41 15 22 1012.3 1012.6 0.0
05/02:30am 14.8 10.0 8.7 67 3.1 SW 24 41 13 22 1012.2 - 0.0
05/02:00am 15.0 10.1 9.8 71 2.7 WSW 26 43 14 23 1012.0 - 0.0
05/01:37am 14.7 9.6 10.5 76 2.2 W 28 52 15 28 1012.0 - 0.0
05/01:30am 15.3 11.2 11.5 78 2.1 W 24 43 13 23 1011.9 - 0.0
05/01:08am 16.0 10.9 10.5 70 2.9 W 28 46 15 25 1011.2 - 0.0
05/01:00am 15.8 11.8 10.6 71 2.8 W 22 39 12 21 1011.4 - 0.0
05/12:30am 16.1 12.4 10.2 68 3.1 W 20 33 11 18 1011.5 - 0.0
05/12:00am 15.8 12.1 10.3 70 2.9 W 20 41 11 22 1011.3 1011.6 0.0
 
Date/Time
EDT
Temp
°C
App
Temp
°C
Dew
Point
Rel
Hum
%
Delta-T
°C
Wind Press
QNH
hPa
Press
MSL
hPa
Rain
since 9 am
mm
Dir
 
Spd
km/h
Gust
km/h
Spd
kts
Gust
kts
04/11:30pm 16.4 13.4 10.5 68 3.2 W 17 30 9 16 1011.7 - 0.0
04/11:00pm 16.5 14.6 10.4 67 3.3 W 11 20 6 11 1011.9 - 0.0
04/10:30pm 17.7 14.8 8.3 54 4.9 W 13 24 7 13 1012.0 - 0.0
04/10:00pm 18.0 14.1 8.6 54 4.9 WSW 19 33 10 18 1012.1 - 0.0
04/09:30pm 18.4 15.3 8.7 53 5.1 W 15 22 8 12 1011.8 - 0.0
04/09:00pm 18.5 14.6 8.5 52 5.2 W 19 24 10 13 1011.5 1011.8 0.0
04/08:30pm 18.8 14.7 8.7 52 5.3 W 20 37 11 20 1011.2 - 0.0
04/08:00pm 19.3 15.3 8.3 49 5.8 W 19 35 10 19 1011.1 - 0.0
04/07:30pm 19.9 15.9 8.3 47 6.1 W 19 28 10 15 1010.9 - 0.0
04/07:00pm 21.0 17.5 8.6 45 6.6 W 17 30 9 16 1011.1 - 0.0
04/06:30pm 20.9 16.9 8.2 44 6.7 W 19 32 10 17 1011.2 - 0.0
04/06:00pm 21.9 17.7 8.4 42 7.2 WNW 20 37 11 20 1011.1 1011.4 0.0
04/05:30pm 21.9 18.6 8.1 41 7.3 W 15 22 8 12 1011.3 - 0.0
04/05:00pm 21.7 18.1 8.2 42 7.2 W 17 26 9 14 1011.4 - 0.0
04/04:30pm 22.6 18.4 8.3 40 7.6 NW 20 32 11 17 1011.6 - 0.0
04/04:00pm 21.9 17.7 8.1 41 7.3 WNW 20 28 11 15 1011.8 - 0.0
04/03:30pm 22.5 18.4 7.9 39 7.7 WNW 19 32 10 17 1012.1 - 0.0

Other Formats:

Comma delimited format used in spreadsheet applications
http://www.bom.gov.au/fwo/IDV60801/IDV60801.94836.axf

JavaScript Object Notation format (JSON) in row-major order
http://www.bom.gov.au/fwo/IDV60801/IDV60801.94836.json